Information for Punta Cana International Airport

back to airport list

ICAO Code:MDPC Country:Dominican Republic
Airport Name:Punta Cana International Airport Is Hub:No
Latitude:18.5667 Longitude:-68.3519
Scheduled Departures:1 Scheduled Arrivals:1
Total Past Departures:0 Total Past Arrivals:0
Pilots Based:0 Current Pilot Location:0
MDPC 202100Z 00000KT 8000 -RA FEW014CB SCT015 BKN070 24/24 Q1012 CB/E/NW/N


Nearby Destination Airports

ICAO Airport Country GC Distance View
TNCM Princess Juliana Netherlands Antilles 300 NM View Airport Page


+ Show Timetable

Scheduled Departures from MDPC

Flight To Destination Days Dep. Time Aircraft Info
ASX451X EPWA Warszawa Chopina Su M T W Th F S 14:00 B763 View Info


Scheduled Arrivals to MDPC

Flight From Origin Days Arr. Time Aircraft Info
ASX451 EPWA Warszawa Chopina Su M T W Th F S 12:15 B763 View Info
+ Show Recent Flight Info

Recent Departures from MDPC

Flight To Destination Pilot Flighttime Landingrate Aircraft View
No Recent Departure PIREPS!


Recent Arrivals to MDPC

Flight From Origin Pilot Flighttime Landingrate Aircraft View
No Recent Arrival PIREPS!
+ Show Pilot Information

Pilots based at MDPC

Avatar Pilot ID Name Location Rank View Profile
No Pilots are based at this airport!


Pilots currently at MDPC

Avatar Pilot ID Name Location Rank On Location since View Profile
Currently there are no pilots at this airport!
- Hide Map